Time;durP1;ratioP1;P1;durP2;ratioP2;P2;SDS_P1;SDS_P2;PMS_P1;PMS_P2;Temp;Humidity;BMP_temperature;BMP_pressure;BME280_temperature;BME280_humidity;BME280_pressure;Samples;Min_cycle;Max_cycle;Signal;HPM_P1;HPM_P2
2023/04/05 13:14:19;;;;;;;269.35;193.13;;;;;;;21.35;46.37;101965.38;5113747;27;20373;-47
2023/04/05 13:16:47;;;;;;;287.98;203.60;;;;;;;22.22;44.41;101960.84;5108755;28;20036;-47
2023/04/05 13:19:15;;;;;;;293.45;207.20;;;;;;;22.93;42.70;101949.34;5108539;28;20040;-47
2023/04/05 13:21:43;;;;;;;279.45;201.88;;;;;;;23.45;41.59;101957.13;5110048;28;20031;-44
2023/04/05 13:24:11;;;;;;;286.55;210.95;;;;;;;23.75;40.65;101949.31;5106729;28;20507;-48
2023/04/05 13:26:38;;;;;;;292.48;209.65;;;;;;;24.02;40.15;101945.72;5102309;28;20028;-46
2023/04/05 13:29:07;;;;;;;297.73;209.23;;;;;;;24.14;39.86;101939.09;5098984;28;20507;-48
2023/04/05 13:31:35;;;;;;;297.25;211.73;;;;;;;24.30;39.57;101933.41;5108038;28;20472;-48
2023/04/05 13:34:03;;;;;;;284.70;201.95;;;;;;;24.33;39.46;101935.22;5108655;28;20036;-44
2023/04/05 13:36:30;;;;;;;283.52;205.82;;;;;;;24.38;39.52;101936.22;5108951;28;20107;-51
2023/04/05 13:38:57;;;;;;;313.75;218.57;;;;;;;24.38;39.59;101931.00;5109175;28;20476;-48
2023/04/05 13:41:25;;;;;;;324.15;212.38;;;;;;;24.43;39.67;101931.97;5109305;28;20027;-53
2023/04/05 13:43:52;;;;;;;285.10;204.82;;;;;;;24.49;39.03;101926.03;5107489;28;20032;-54
2023/04/05 13:46:19;;;;;;;275.20;191.80;;;;;;;24.60;38.46;101929.81;5108833;28;20028;-56
2023/04/05 13:48:47;;;;;;;274.73;194.93;;;;;;;24.64;38.03;101926.44;5109487;28;20465;-48
2023/04/05 13:51:15;;;;;;;283.70;198.43;;;;;;;24.69;38.00;101916.91;5110116;28;20122;-50
2023/04/05 13:53:43;;;;;;;292.80;207.50;;;;;;;24.72;38.36;101919.66;5109855;28;20107;-48
2023/04/05 13:56:12;;;;;;;272.35;191.93;;;;;;;24.65;38.14;101907.22;5109434;28;20024;-57
2023/04/05 13:58:41;;;;;;;302.38;212.23;;;;;;;24.69;38.27;101911.66;5109817;28;20095;-48
2023/04/05 14:01:09;;;;;;;288.55;207.13;;;;;;;24.68;38.66;101911.63;5109546;28;20035;-49
2023/04/05 14:03:37;;;;;;;294.77;208.48;;;;;;;24.71;38.34;101910.00;5109997;28;20110;-57
2023/04/05 14:06:05;;;;;;;310.98;211.82;;;;;;;24.70;39.02;101902.09;5109255;28;20489;-56
2023/04/05 14:08:34;;;;;;;306.77;216.80;;;;;;;24.75;38.80;101910.09;5109377;28;20077;-58
2023/04/05 14:11:03;;;;;;;309.20;218.20;;;;;;;24.70;38.65;101905.59;5109724;28;20034;-48
2023/04/05 14:13:32;;;;;;;282.63;204.52;;;;;;;24.72;38.65;101897.78;5103742;28;20046;-48
2023/04/05 14:16:00;;;;;;;304.17;213.38;;;;;;;24.69;38.61;101902.91;5108562;28;20469;-48
2023/04/05 14:18:28;;;;;;;307.63;223.88;;;;;;;24.70;39.37;101902.09;5108687;28;20504;-49
2023/04/05 14:20:56;;;;;;;330.63;230.65;;;;;;;24.71;39.17;101899.50;5108495;28;20493;-56
2023/04/05 14:23:25;;;;;;;293.92;214.05;;;;;;;24.78;38.98;101895.28;5106202;28;20111;-55
2023/04/05 14:25:54;;;;;;;276.08;199.98;;;;;;;24.79;38.59;101890.94;5093509;28;20115;-54
2023/04/05 14:28:23;;;;;;;268.45;189.40;;;;;;;24.77;38.30;101888.28;5094571;28;20016;-57
2023/04/05 14:30:52;;;;;;;292.48;211.77;;;;;;;24.77;38.71;101879.53;5094645;28;20028;-57
2023/04/05 14:33:20;;;;;;;308.75;214.60;;;;;;;24.72;38.62;101882.03;5092907;28;20529;-57
2023/04/05 14:35:49;;;;;;;299.90;220.27;;;;;;;24.75;39.04;101878.59;5094836;28;20103;-56
2023/04/05 14:38:16;;;;;;;278.80;201.93;;;;;;;24.77;38.46;101867.28;5093790;28;20036;-54
2023/04/05 14:40:43;;;;;;;275.65;197.70;;;;;;;24.76;38.10;101870.75;5094677;28;20028;-58
2023/04/05 14:43:11;;;;;;;286.55;207.25;;;;;;;24.72;38.40;101861.94;5093317;28;20062;-49
2023/04/05 14:45:38;;;;;;;315.08;224.13;;;;;;;24.71;38.99;101868.03;5094685;28;20031;-58
2023/04/05 14:48:05;;;;;;;268.38;196.15;;;;;;;24.69;38.63;101855.69;5093920;28;20057;-50
2023/04/05 14:50:34;;;;;;;251.13;181.80;;;;;;;24.73;37.72;101853.22;5094291;28;20028;-48
2023/04/05 14:53:02;;;;;;;283.92;201.63;;;;;;;24.80;38.36;101854.22;5093707;28;20056;-57
2023/04/05 14:55:31;;;;;;;299.25;204.98;;;;;;;24.80;38.62;101854.22;5094862;28;20020;-57
2023/04/05 14:58:00;;;;;;;305.90;213.15;;;;;;;24.78;38.41;101853.31;5094244;28;20027;-53
2023/04/05 15:00:28;;;;;;;268.40;192.88;;;;;;;24.97;37.95;101851.13;5094372;28;20028;-50
2023/04/05 15:02:56;;;;;;;268.90;188.40;;;;;;;24.88;37.98;101844.81;5093444;28;20078;-57
2023/04/05 15:05:25;;;;;;;234.63;165.02;;;;;;;24.93;37.65;101854.50;5094179;28;20058;-56
2023/04/05 15:07:54;;;;;;;236.32;161.70;;;;;;;24.86;37.31;101848.22;5094254;28;21310;-58
2023/04/05 15:10:23;;;;;;;209.60;147.10;;;;;;;25.01;36.80;101853.84;5094357;28;20031;-57
2023/04/05 15:12:52;;;;;;;222.45;153.65;;;;;;;24.97;37.02;101856.38;5092987;28;20105;-57
2023/04/05 15:15:21;;;;;;;221.05;151.60;;;;;;;24.96;37.32;101852.88;5093717;28;20028;-48
2023/04/05 15:17:49;;;;;;;220.88;154.32;;;;;;;25.05;37.03;101849.56;5093604;28;20027;-57
2023/04/05 15:20:18;;;;;;;217.30;152.15;;;;;;;25.12;36.71;101845.34;5093951;28;20031;-48
2023/04/05 15:22:47;;;;;;;185.80;128.60;;;;;;;25.08;36.42;101844.34;5092866;28;20194;-58
2023/04/05 15:25:15;;;;;;;207.25;144.18;;;;;;;25.11;36.83;101851.44;5094149;28;20031;-54
2023/04/05 15:27:43;;;;;;;181.63;124.78;;;;;;;25.06;36.68;101842.56;5073789;28;20021;-47
2023/04/05 15:30:12;;;;;;;181.80;124.43;;;;;;;24.91;36.79;101844.00;5093056;28;20024;-50
2023/04/05 15:32:41;;;;;;;204.98;139.18;;;;;;;25.01;36.78;101839.84;5092507;28;20473;-47
2023/04/05 15:35:10;;;;;;;176.57;119.70;;;;;;;24.91;36.71;101837.84;5092748;28;20114;-51
2023/04/05 15:37:39;;;;;;;175.20;121.13;;;;;;;24.81;36.93;101828.91;5092817;28;20020;-58
2023/04/05 15:40:08;;;;;;;165.55;113.22;;;;;;;24.86;36.55;101836.03;5093289;28;20482;-58
2023/04/05 15:42:37;;;;;;;190.13;122.80;;;;;;;24.86;36.76;101835.13;5090708;28;20028;-57
2023/04/05 15:45:04;;;;;;;177.82;127.78;;;;;;;24.93;36.75;101831.78;5089527;28;20044;-58
2023/04/05 15:47:31;;;;;;;198.60;138.93;;;;;;;24.92;37.02;101835.25;5085347;28;20027;-57
2023/04/05 15:49:59;;;;;;;206.23;137.07;;;;;;;24.94;36.71;101833.56;5091724;28;20095;-57
2023/04/05 15:52:26;;;;;;;193.38;136.35;;;;;;;24.96;36.53;101831.88;5090992;28;20051;-56
2023/04/05 15:54:54;;;;;;;189.73;127.78;;;;;;;24.96;36.23;101834.50;5091510;28;20078;-56
2023/04/05 15:57:22;;;;;;;197.20;136.02;;;;;;;24.91;36.66;101820.38;5091967;28;20035;-56
2023/04/05 15:59:53;;;;;;;195.82;136.18;;;;;;;24.98;36.74;101817.03;5090671;28;20024;-47
2023/04/05 16:02:20;;;;;;;204.88;146.63;;;;;;;24.90;37.21;101823.84;5091970;28;20031;-57
2023/04/05 16:04:48;;;;;;;234.45;164.48;;;;;;;24.93;37.20;101823.91;5090199;28;20020;-57
2023/04/05 16:07:16;;;;;;;226.15;165.98;;;;;;;24.92;37.35;101813.38;5092267;28;20039;-47
2023/04/05 16:09:44;;;;;;;235.02;160.55;;;;;;;24.96;36.91;101821.38;5089072;28;20033;-48
2023/04/05 16:12:12;;;;;;;239.93;165.55;;;;;;;24.96;37.00;101813.50;5088950;28;20047;-54
2023/04/05 16:14:39;;;;;;;211.85;151.57;;;;;;;24.99;36.95;101812.66;5090340;28;20028;-48
2023/04/05 16:17:07;;;;;;;223.68;154.65;;;;;;;24.85;36.58;101793.97;5088064;28;20440;-54
2023/04/05 16:19:34;;;;;;;208.05;146.10;;;;;;;24.93;36.68;101820.38;5088646;28;20030;-58
2023/04/05 16:22:03;;;;;;;207.88;143.10;;;;;;;24.94;36.13;101820.44;5089542;28;20039;-58
2023/04/05 16:24:32;;;;;;;197.88;136.23;;;;;;;24.94;36.57;101816.91;5089835;28;20419;-58
2023/04/05 16:26:59;;;;;;;184.82;128.80;;;;;;;24.88;36.02;101804.53;5089571;28;20025;-57
2023/04/05 16:29:27;;;;;;;202.25;136.32;;;;;;;24.96;36.53;101820.47;5091651;28;20389;-57
2023/04/05 16:31:54;;;;;;;193.68;136.48;;;;;;;24.89;36.17;101808.94;5089264;28;20442;-58
2023/04/05 16:34:22;;;;;;;184.32;127.22;;;;;;;24.91;36.36;101812.50;5086409;28;20027;-54
2023/04/05 16:36:49;;;;;;;213.15;144.88;;;;;;;24.84;36.38;101800.97;5091786;28;20020;-57
2023/04/05 16:39:16;;;;;;;195.32;140.00;;;;;;;24.96;36.34;101809.97;5091538;28;20095;-58
2023/04/05 16:41:43;;;;;;;192.00;133.43;;;;;;;24.89;36.03;101811.56;5088615;28;20423;-57
2023/04/05 16:44:10;;;;;;;205.45;140.77;;;;;;;24.88;36.23;101812.41;5091273;28;20063;-54
2023/04/05 16:46:38;;;;;;;206.32;142.88;;;;;;;24.85;36.44;101807.09;5089859;28;20082;-52
2023/04/05 16:49:06;;;;;;;230.60;158.90;;;;;;;24.82;36.75;101817.53;5091617;28;20032;-53
2023/04/05 16:51:35;;;;;;;196.93;136.88;;;;;;;24.77;36.23;101819.16;5087889;28;20032;-54
2023/04/05 16:54:02;;;;;;;202.48;137.50;;;;;;;24.81;36.09;101818.41;5090775;28;20032;-51
2023/04/05 16:56:30;;;;;;;199.88;136.02;;;;;;;24.79;36.50;101817.47;5091565;28;20027;-55
2023/04/05 16:58:57;;;;;;;190.57;131.88;;;;;;;24.74;36.08;101812.09;5091602;28;20086;-57
2023/04/05 17:01:25;;;;;;;191.63;132.73;;;;;;;24.89;35.78;101816.81;5088190;28;20043;-57
2023/04/05 17:03:52;;;;;;;212.93;140.27;;;;;;;24.86;36.12;101807.16;5089385;28;20028;-58
2023/04/05 17:06:20;;;;;;;203.77;139.70;;;;;;;24.85;36.52;101812.34;5091607;28;20020;-58
2023/04/05 17:08:48;;;;;;;202.15;139.55;;;;;;;24.85;36.33;101812.34;5091443;28;20028;-49
2023/04/05 17:11:15;;;;;;;211.00;146.55;;;;;;;24.92;36.23;101810.75;5088013;28;20103;-58
2023/04/05 17:13:44;;;;;;;217.55;152.35;;;;;;;24.84;36.47;101810.56;5088663;28;20540;-50
2023/04/05 17:16:11;;;;;;;223.32;156.00;;;;;;;24.88;36.32;101813.31;5090089;28;20392;-53
2023/04/05 17:18:39;;;;;;;220.95;150.75;;;;;;;24.81;36.48;101811.41;5091583;28;20474;-57
2023/04/05 17:21:07;;;;;;;213.55;147.02;;;;;;;24.82;36.04;101807.06;5089496;28;20028;-57
2023/04/05 17:23:35;;;;;;;220.05;146.05;;;;;;;24.75;36.24;101813.00;5088848;28;20032;-49
2023/04/05 17:26:03;;;;;;;220.60;153.98;;;;;;;24.73;36.61;101816.47;5091413;28;20020;-48
2023/04/05 17:28:31;;;;;;;229.20;156.93;;;;;;;24.71;36.64;101818.16;5090026;28;20515;-58
2023/04/05 17:31:00;;;;;;;216.65;147.93;;;;;;;24.76;36.62;101820.88;5091015;28;20039;-50
2023/04/05 17:33:27;;;;;;;219.60;151.05;;;;;;;24.66;36.53;101818.88;5085741;28;20028;-58
2023/04/05 17:35:56;;;;;;;214.88;149.20;;;;;;;24.66;36.35;101825.00;5090801;28;20038;-55
2023/04/05 17:38:26;;;;;;;214.80;142.15;;;;;;;24.71;36.48;101833.91;5091066;28;20020;-54
2023/04/05 17:40:56;;;;;;;210.50;145.75;;;;;;;24.76;36.40;101827.88;5091059;28;20115;-56
2023/04/05 17:43:23;;;;;;;209.10;144.38;;;;;;;24.66;36.62;101826.75;5089355;28;20058;-54
2023/04/05 17:45:53;;;;;;;214.15;149.18;;;;;;;24.70;36.31;101828.63;5085252;28;20016;-55
2023/04/05 17:48:21;;;;;;;207.88;145.98;;;;;;;24.73;36.45;101832.22;5089807;28;20022;-57
2023/04/05 17:50:48;;;;;;;200.18;141.98;;;;;;;24.67;36.87;101834.66;5133049;22;20034;-51
2023/04/05 17:53:16;;;;;;;223.95;152.48;;;;;;;24.55;37.01;101830.00;5037126;28;20045;-51
2023/04/05 17:55:45;;;;;;;304.17;225.57;;;;;;;24.54;37.07;101829.97;5050877;28;20048;-59
2023/04/05 17:58:13;;;;;;;293.38;218.10;;;;;;;24.58;37.22;101843.19;5052254;28;20525;-53
2023/04/05 18:00:41;;;;;;;321.10;234.68;;;;;;;24.49;37.61;101839.47;5055240;28;20107;-53
2023/04/05 18:03:09;;;;;;;279.92;204.45;;;;;;;24.44;37.20;101836.72;5055548;28;20115;-51
2023/04/05 18:05:36;;;;;;;261.23;196.52;;;;;;;24.50;37.03;101842.13;5055331;28;20494;-57
2023/04/05 18:08:05;;;;;;;264.77;194.10;;;;;;;24.58;36.89;101837.94;5055216;28;20025;-59
2023/04/05 18:10:32;;;;;;;260.52;192.32;;;;;;;24.55;36.95;101843.13;5054408;28;20028;-59
2023/04/05 18:13:01;;;;;;;307.65;227.68;;;;;;;24.54;37.19;101845.69;5054998;28;20029;-50
2023/04/05 18:15:29;;;;;;;310.23;235.35;;;;;;;24.56;37.16;101841.38;5055351;28;20025;-50
2023/04/05 18:17:56;;;;;;;371.55;288.02;;;;;;;24.60;37.24;101840.63;5050786;28;20025;-57
2023/04/05 18:20:25;;;;;;;412.33;321.27;;;;;;;24.69;37.07;101847.81;5053317;28;20036;-60
2023/04/05 18:22:52;;;;;;;413.80;321.67;;;;;;;24.73;37.37;101847.09;5053678;28;20082;-58
2023/04/05 18:25:21;;;;;;;392.23;298.45;;;;;;;24.75;37.40;101842.72;5050105;28;20052;-49
2023/04/05 18:27:49;;;;;;;372.67;282.08;;;;;;;24.73;37.20;101845.34;5054893;28;20108;-59
2023/04/05 18:30:18;;;;;;;363.85;269.75;;;;;;;24.73;37.40;101850.59;5050577;28;20470;-60
2023/04/05 18:32:46;;;;;;;350.63;263.73;;;;;;;24.77;37.46;101850.66;5053037;28;20029;-49
2023/04/05 18:35:13;;;;;;;353.23;261.55;;;;;;;24.80;37.81;101862.09;5054731;28;20037;-50
2023/04/05 18:37:42;;;;;;;333.50;253.05;;;;;;;24.84;37.52;101856.09;5054970;28;20057;-60
2023/04/05 18:40:09;;;;;;;353.38;260.70;;;;;;;24.91;37.55;101853.59;5055318;28;20378;-57
2023/04/05 18:42:36;;;;;;;334.60;252.40;;;;;;;24.96;37.45;101859.84;5055520;28;20462;-50
2023/04/05 18:45:05;;;;;;;333.25;245.90;;;;;;;25.00;37.42;101859.06;5053991;28;20037;-49
2023/04/05 18:47:35;;;;;;;324.63;239.30;;;;;;;25.09;37.57;101867.13;5054798;28;20478;-59
2023/04/05 18:50:03;;;;;;;327.17;236.40;;;;;;;25.10;37.45;101870.66;5055100;28;20025;-57
2023/04/05 18:52:32;;;;;;;323.45;238.02;;;;;;;25.10;37.55;101866.28;5054930;28;20049;-57
2023/04/05 18:55:02;;;;;;;313.38;235.55;;;;;;;25.10;37.51;101874.16;5054258;28;20028;-59
2023/04/05 18:57:29;;;;;;;315.38;231.75;;;;;;;25.18;37.43;101869.97;5054407;28;20103;-49
2023/04/05 18:59:58;;;;;;;307.40;229.52;;;;;;;25.19;37.67;101870.84;5054748;28;20028;-60
2023/04/05 19:02:25;;;;;;;344.88;250.40;;;;;;;25.13;37.86;101876.00;5055043;28;20035;-54
2023/04/05 19:04:53;;;;;;;344.27;253.55;;;;;;;25.14;38.04;101876.00;5053981;28;20052;-56
2023/04/05 19:07:21;;;;;;;326.45;246.07;;;;;;;25.17;37.72;101872.56;5054501;28;20078;-50
2023/04/05 19:09:49;;;;;;;340.77;246.82;;;;;;;25.19;37.68;101873.47;5054622;28;20028;-59
2023/04/05 19:12:16;;;;;;;326.73;244.77;;;;;;;25.24;37.65;101873.56;5054884;28;20108;-58
2023/04/05 19:14:44;;;;;;;323.90;233.35;;;;;;;25.27;37.75;101873.66;5054125;28;20040;-59
2023/04/05 19:17:11;;;;;;;322.02;229.95;;;;;;;25.23;37.47;101875.34;5054132;28;20474;-57
2023/04/05 19:19:41;;;;;;;322.80;231.43;;;;;;;25.28;37.45;101886.84;5054551;28;20048;-61
2023/04/05 19:22:10;;;;;;;308.70;229.35;;;;;;;25.31;37.73;101867.63;5054581;28;20021;-55
2023/04/05 19:24:40;;;;;;;319.90;229.18;;;;;;;25.30;37.75;101873.72;5054466;28;20103;-59
2023/04/05 19:27:07;;;;;;;308.73;223.10;;;;;;;25.32;37.77;101866.75;5054293;28;20116;-59
2023/04/05 19:29:36;;;;;;;300.80;229.23;;;;;;;25.28;37.94;101870.16;5054384;28;20025;-59
2023/04/05 19:32:05;;;;;;;312.25;224.02;;;;;;;25.28;37.86;101852.69;5054533;28;21027;-58
2023/04/05 19:34:32;;;;;;;312.45;227.57;;;;;;;25.31;38.05;101855.38;5054270;28;20056;-49
2023/04/05 19:37:00;;;;;;;310.02;224.80;;;;;;;25.29;37.92;101861.44;5052656;28;20383;-59
2023/04/05 19:39:29;;;;;;;316.50;232.68;;;;;;;25.31;37.82;101860.66;5054313;28;20483;-59
2023/04/05 19:41:57;;;;;;;320.75;230.48;;;;;;;25.31;38.14;101857.13;5054568;28;20033;-60
2023/04/05 19:44:49;;;;;;;322.13;236.98;;;;;;;25.30;38.09;101864.13;5053714;28;20124;-53
2023/04/05 19:47:19;;;;;;;323.77;239.00;;;;;;;25.33;37.98;101869.41;5051127;28;20458;-50
2023/04/05 19:49:48;;;;;;;326.42;235.63;;;;;;;25.30;38.18;101868.47;5054033;28;20079;-50
2023/04/05 19:52:35;;;;;;;317.02;230.15;;;;;;;25.36;37.88;101870.34;5053689;28;20045;-49
2023/04/05 19:55:28;;;;;;;320.92;231.60;;;;;;;25.37;38.09;101887.88;5050088;28;20033;-50
2023/04/05 19:57:56;;;;;;;307.63;224.45;;;;;;;25.37;38.28;101888.78;5053922;28;20159;-53
2023/04/05 20:00:51;;;;;;;306.65;228.38;;;;;;;25.34;38.21;101880.81;5053452;28;20032;-50
2023/04/05 20:03:30;;;;;;;319.42;224.23;;;;;;;25.42;38.34;101883.66;5052605;28;20040;-55
2023/04/05 20:06:10;;;;;;;303.38;216.95;;;;;;;25.43;38.21;101888.03;5053886;28;20075;-50
2023/04/05 20:08:40;;;;;;;307.50;223.90;;;;;;;25.42;38.33;101888.91;5052170;28;20029;-51
2023/04/05 20:11:12;;;;;;;294.92;210.40;;;;;;;25.42;38.27;101879.25;5053490;28;20052;-52
2023/04/05 20:14:01;;;;;;;292.75;210.35;;;;;;;25.46;38.13;101883.75;5052199;28;20491;-50
2023/04/05 20:16:30;;;;;;;283.45;208.38;;;;;;;25.50;37.99;101892.56;5052170;28;20036;-50
2023/04/05 20:19:03;;;;;;;285.95;203.35;;;;;;;25.53;38.25;101900.50;5053440;28;20055;-57
2023/04/05 20:21:31;;;;;;;281.45;205.32;;;;;;;25.60;38.15;101896.28;5053153;28;20386;-58
2023/04/05 20:24:00;;;;;;;284.67;204.75;;;;;;;25.59;38.01;101895.41;5053302;28;20143;-48
2023/04/05 20:26:30;;;;;;;269.80;195.98;;;;;;;25.60;37.85;101889.28;5053252;28;20025;-59
2023/04/05 20:29:00;;;;;;;279.88;198.30;;;;;;;25.62;37.77;101895.47;5053220;28;20031;-49
2023/04/05 20:31:30;;;;;;;277.08;197.43;;;;;;;25.67;37.73;101894.66;5053261;28;20029;-54
2023/04/05 20:34:00;;;;;;;293.13;205.02;;;;;;;25.72;37.97;101898.28;5052609;28;20482;-53
2023/04/05 20:36:32;;;;;;;293.98;207.85;;;;;;;25.73;38.05;101894.78;5053102;28;20033;-58
2023/04/05 20:39:01;;;;;;;291.58;209.65;;;;;;;25.75;37.95;101891.31;5052946;28;20100;-50
2023/04/05 20:41:30;;;;;;;309.13;213.52;;;;;;;25.79;37.95;101892.31;5035434;28;20051;-56
2023/04/05 20:43:57;;;;;;;308.23;216.02;;;;;;;25.79;38.26;101894.94;5053154;28;20025;-50
2023/04/05 20:46:27;;;;;;;300.60;212.63;;;;;;;25.84;38.21;101897.63;5040368;28;20025;-53
2023/04/05 20:48:56;;;;;;;313.05;220.60;;;;;;;25.86;37.94;101891.53;5032805;28;20022;-53
2023/04/05 20:51:24;;;;;;;312.13;220.35;;;;;;;25.90;37.93;101890.75;5032378;28;20049;-52
2023/04/05 20:53:52;;;;;;;305.33;216.98;;;;;;;25.89;38.04;101890.75;5032818;28;20037;-60
2023/04/05 20:56:21;;;;;;;311.25;221.48;;;;;;;25.96;37.67;101887.34;5032155;28;20492;-60
2023/04/05 20:58:49;;;;;;;304.35;216.15;;;;;;;25.98;37.91;101884.78;5033286;28;20033;-60
2023/04/05 21:01:18;;;;;;;310.10;217.70;;;;;;;26.01;37.86;101876.91;5032695;28;20107;-59
2023/04/05 21:03:47;;;;;;;310.50;222.32;;;;;;;26.04;37.93;101870.00;5033068;28;20055;-50
2023/04/05 21:06:15;;;;;;;325.10;225.95;;;;;;;26.06;37.62;101868.25;5033377;28;20021;-60
2023/04/05 21:08:44;;;;;;;316.60;227.50;;;;;;;26.03;37.90;101864.69;5032781;28;20034;-58
2023/04/05 21:11:12;;;;;;;322.15;225.40;;;;;;;26.07;37.83;101864.78;5032718;28;20036;-59
2023/04/05 21:13:42;;;;;;;322.85;234.32;;;;;;;26.10;38.06;101869.22;5032927;28;20030;-58
2023/04/05 21:16:10;;;;;;;322.08;227.60;;;;;;;26.11;37.88;101865.78;5032823;28;20037;-59
2023/04/05 21:18:39;;;;;;;322.65;229.18;;;;;;;26.15;37.93;101862.31;5032554;28;20029;-59
2023/04/05 21:21:07;;;;;;;325.80;230.15;;;;;;;26.16;37.75;101852.69;5032776;28;20033;-49
2023/04/05 21:23:36;;;;;;;333.60;237.10;;;;;;;26.15;37.70;101851.78;5032493;28;20048;-49
2023/04/05 21:26:05;;;;;;;328.48;234.88;;;;;;;26.16;37.99;101847.44;5032717;28;20064;-60
2023/04/05 21:28:33;;;;;;;334.75;236.40;;;;;;;26.17;37.81;101846.56;5032520;28;20029;-57
2023/04/05 21:31:02;;;;;;;332.55;237.90;;;;;;;26.16;37.85;101836.91;5032634;28;20116;-60
2023/04/05 21:33:31;;;;;;;325.58;233.02;;;;;;;26.19;37.75;101839.59;5032623;28;20083;-57
2023/04/05 21:35:59;;;;;;;335.13;240.40;;;;;;;26.18;37.74;101835.19;5035901;28;20112;-57
2023/04/05 21:38:28;;;;;;;343.33;241.02;;;;;;;26.18;37.81;101841.34;5035522;28;20470;-59
2023/04/05 21:40:56;;;;;;;329.48;237.48;;;;;;;26.20;37.71;101834.34;5036674;28;20061;-58
2023/04/05 21:43:24;;;;;;;332.67;240.88;;;;;;;26.20;37.85;101831.72;5036569;28;20509;-55
2023/04/05 21:45:53;;;;;;;349.02;244.85;;;;;;;26.24;37.91;101830.03;5036298;28;20045;-60
2023/04/05 21:48:23;;;;;;;351.15;246.27;;;;;;;26.24;37.86;101825.66;5036749;28;20427;-52
2023/04/05 21:50:52;;;;;;;347.17;244.43;;;;;;;26.24;37.87;101820.41;5036022;28;20092;-59
2023/04/05 21:53:22;;;;;;;332.05;241.73;;;;;;;26.27;37.70;101816.94;5036276;28;20473;-49
2023/04/05 21:55:51;;;;;;;345.52;242.32;;;;;;;26.29;37.64;101815.22;5036246;28;20459;-60
2023/04/05 21:58:20;;;;;;;347.15;241.40;;;;;;;26.32;37.59;101817.91;5036390;28;20030;-58
2023/04/05 22:00:49;;;;;;;342.13;246.15;;;;;;;26.34;37.43;101818.81;5036381;28;20021;-58
2023/04/05 22:03:17;;;;;;;340.83;246.52;;;;;;;26.33;37.60;101819.69;5035983;28;20029;-59
2023/04/05 22:05:46;;;;;;;353.27;249.45;;;;;;;26.32;37.69;101814.38;5036304;28;20057;-60
2023/04/05 22:08:15;;;;;;;352.92;248.77;;;;;;;26.31;37.73;101817.91;5036255;28;20075;-59
2023/04/05 22:10:44;;;;;;;351.98;250.98;;;;;;;26.26;37.66;101809.03;5035918;28;20029;-58
2023/04/05 22:13:12;;;;;;;348.75;251.27;;;;;;;26.29;37.70;101819.63;5035164;28;20083;-59
2023/04/05 22:15:42;;;;;;;361.70;255.30;;;;;;;26.28;37.59;101816.06;5035657;28;20036;-59
2023/04/05 22:18:11;;;;;;;356.17;252.48;;;;;;;26.25;37.75;101816.03;5036028;28;20018;-60
2023/04/05 22:20:39;;;;;;;356.70;255.13;;;;;;;26.19;37.70;101802.78;5035921;28;20025;-58
2023/04/05 22:23:08;;;;;;;371.38;263.75;;;;;;;26.18;37.69;101794.00;5035807;28;20405;-60
2023/04/05 22:25:36;;;;;;;359.50;258.58;;;;;;;26.18;37.70;101803.66;5036062;28;20033;-58
2023/04/05 22:28:05;;;;;;;356.70;261.67;;;;;;;26.14;37.88;101800.09;5035987;28;20029;-59
2023/04/05 22:30:35;;;;;;;368.23;268.40;;;;;;;26.13;38.00;101795.69;5035546;28;20025;-58
2023/04/05 22:33:03;;;;;;;364.13;264.88;;;;;;;26.12;38.03;101803.53;5035576;28;20087;-54
2023/04/05 22:35:32;;;;;;;366.20;265.58;;;;;;;26.06;37.90;101788.50;5035929;28;20459;-59
2023/04/05 22:38:00;;;;;;;370.67;269.02;;;;;;;26.03;38.22;101788.44;5035570;28;20030;-60
2023/04/05 22:40:29;;;;;;;369.85;270.00;;;;;;;26.00;38.22;101772.59;5035667;28;20029;-60
2023/04/05 22:42:57;;;;;;;383.88;274.13;;;;;;;25.91;38.35;101776.88;5035543;28;20033;-59
2023/04/05 22:45:27;;;;;;;381.95;276.75;;;;;;;25.87;38.47;101772.41;5035121;28;20053;-58
2023/04/05 22:47:56;;;;;;;382.02;279.05;;;;;;;25.87;38.26;101782.06;5035467;28;20028;-59
2023/04/05 22:50:24;;;;;;;391.20;277.15;;;;;;;25.83;38.35;101783.72;5035330;28;20029;-57
2023/04/05 22:52:53;;;;;;;383.90;280.55;;;;;;;25.82;38.60;101779.31;5033622;28;20076;-58
2023/04/05 22:55:21;;;;;;;381.52;281.73;;;;;;;25.82;38.61;101774.06;5035417;28;20021;-56
2023/04/05 22:57:51;;;;;;;388.88;288.58;;;;;;;25.82;38.53;101779.31;5035326;28;20045;-54
2023/04/05 23:00:20;;;;;;;395.23;286.48;;;;;;;25.79;38.35;101774.03;5035129;28;20459;-49
2023/04/05 23:02:49;;;;;;;400.55;292.42;;;;;;;25.79;38.25;101772.28;5035217;28;20051;-60
2023/04/05 23:05:18;;;;;;;390.85;291.20;;;;;;;25.73;38.78;101768.66;5035325;28;20428;-59
2023/04/05 23:07:47;;;;;;;399.48;290.08;;;;;;;25.69;38.80;101772.06;5035042;28;20109;-58
2023/04/05 23:10:15;;;;;;;388.98;286.63;;;;;;;25.69;38.60;101754.56;5033834;28;20524;-60
2023/04/05 23:12:45;;;;;;;387.10;291.75;;;;;;;25.66;38.43;101754.50;5034823;28;20390;-59
2023/04/05 23:15:14;;;;;;;404.65;299.15;;;;;;;25.59;38.58;101758.78;5033520;28;20032;-60
2023/04/05 23:17:42;;;;;;;403.48;300.48;;;;;;;25.54;38.86;101765.66;5034686;28;20108;-60
2023/04/05 23:20:11;;;;;;;403.70;296.15;;;;;;;25.55;38.71;101762.19;5034742;28;20042;-59
2023/04/05 23:22:40;;;;;;;408.10;298.13;;;;;;;25.51;38.57;101759.47;5034730;28;20430;-59
2023/04/05 23:25:08;;;;;;;398.33;294.60;;;;;;;25.51;38.55;101752.47;5034685;28;20528;-59
2023/04/05 23:27:37;;;;;;;402.52;297.88;;;;;;;25.50;38.66;101758.56;5034580;28;20111;-53
2023/04/05 23:30:06;;;;;;;409.58;304.30;;;;;;;25.46;39.15;101754.16;5033310;28;20444;-59
2023/04/05 23:32:35;;;;;;;383.38;289.48;;;;;;;25.42;38.73;101755.81;5034853;28;20324;-60
2023/04/05 23:35:04;;;;;;;411.00;300.30;;;;;;;25.43;38.76;101754.94;5034944;28;20029;-59
2023/04/05 23:37:32;;;;;;;420.77;311.85;;;;;;;25.51;38.99;101752.47;5034447;28;20486;-60
2023/04/05 23:40:01;;;;;;;402.52;296.48;;;;;;;25.50;38.58;101755.94;5034481;28;20029;-59
2023/04/05 23:42:29;;;;;;;406.58;305.10;;;;;;;25.51;38.93;101752.47;5034696;28;20034;-59
2023/04/05 23:44:59;;;;;;;407.40;306.55;;;;;;;25.55;38.73;101759.56;5034473;28;20467;-59
2023/04/05 23:47:27;;;;;;;406.45;307.88;;;;;;;25.47;39.00;101748.03;5034222;28;20041;-49
2023/04/05 23:49:56;;;;;;;419.27;315.63;;;;;;;25.52;38.88;101749.00;5034248;28;20048;-60
2023/04/05 23:52:25;;;;;;;423.20;322.80;;;;;;;25.50;38.83;101755.09;5033937;28;20052;-60
2023/04/05 23:54:54;;;;;;;404.85;307.23;;;;;;;25.47;38.57;101748.91;5033821;28;20364;-59
2023/04/05 23:57:22;;;;;;;418.25;318.20;;;;;;;25.52;38.74;101749.00;5032600;28;20032;-49
2023/04/05 23:59:51;;;;;;;432.95;326.02;;;;;;;25.51;39.07;101752.47;5034048;28;20390;-58
